Accueil
METAR-TAF:

METAR-TAF

Aéroports :

Lyndonville, Vermont, États-Unis

latitude: 44-34-09N, longitude: 072-01-05W, altitude: 362 m

Observation

Le bulletin a été fait il y a 27 minutes, à 19:15 UTC
Vent 10 kt de ouest avec des rafales jusqu'à 16 kt
Température 23°C
Humidité 38%
Pression 1011 hPa
Visibilité: 16.1 km
Nuages épars à une hauteur de 6500 ft
Nuages fragmentés à une hauteur de 8000 ft

METAR: KCDA 121915Z AUTO 27010G16KT 10SM SCT065 BKN080 23/08 A2984 RMK AO2 T02330084

Heure: 15:42 (19:42 UTC)


TAF: absent

Observations et prévisions météorologiques de plus de 4000 aéroports (messages METAR et TAF).

Les stations disponibles sont représentées par des disques jaunes et rouges sur la carte.

Passer la souris dessus pour voir le nom de la station.

Cliquer dessus pour voir les observations et prévisions météorologiques.

Pour changer de carte: cliquez sur les boutons verts avec une croix noire pour zoomer, sur le bouton vert avec un tiret pour effectuer un zoom arrière, ou sur les flèches vertes pour les cartes adjacentes.


METAR-TAF: